Time;durP1;ratioP1;P1;durP2;ratioP2;P2;SDS_P1;SDS_P2;PMS_P1;PMS_P2;Temp;Humidity;BMP_temperature;BMP_pressure;BME280_temperature;BME280_humidity;BME280_pressure;Samples;Min_cycle;Max_cycle;Signal;HPM_P1;HPM_P2
2021/09/03 00:01:05;;;;;;;7.87;7.27;;;16.10;99.90;;;;;;10511670;28;20311;-83
2021/09/03 00:06:09;;;;;;;8.27;7.67;;;16.10;99.90;;;;;;10527172;28;20198;-81
2021/09/03 00:11:12;;;;;;;8.77;7.97;;;16.10;99.90;;;;;;10511831;28;20338;-82
2021/09/03 00:16:14;;;;;;;8.07;7.37;;;16.10;99.90;;;;;;10532364;28;20668;-83
2021/09/03 00:21:17;;;;;;;7.47;6.90;;;16.00;99.90;;;;;;10554823;28;20644;-82
2021/09/03 00:26:19;;;;;;;7.60;7.00;;;15.90;99.90;;;;;;10517787;28;20226;-83
2021/09/03 00:31:21;;;;;;;9.67;8.77;;;15.90;99.90;;;;;;10533360;28;20216;-83
2021/09/03 00:36:25;;;;;;;8.97;8.27;;;15.90;99.90;;;;;;10517016;28;20257;-83
2021/09/03 00:41:27;;;;;;;8.63;7.83;;;15.90;99.90;;;;;;10533929;28;20254;-83
2021/09/03 00:46:29;;;;;;;8.87;8.07;;;15.90;99.90;;;;;;10552513;28;20191;-82
2021/09/03 00:51:33;;;;;;;8.33;7.63;;;15.90;99.90;;;;;;10534831;28;20223;-82
2021/09/03 00:56:36;;;;;;;8.37;7.67;;;15.80;99.90;;;;;;10515392;28;20279;-82
2021/09/03 01:01:38;;;;;;;10.80;8.93;;;15.80;99.90;;;;;;10528826;28;20212;-82
2021/09/03 01:06:41;;;;;;;9.33;8.60;;;15.80;99.90;;;;;;10549975;28;20633;-82
2021/09/03 01:11:44;;;;;;;8.70;7.57;;;15.70;99.90;;;;;;10566471;28;20220;-82
2021/09/03 01:16:50;;;;;;;8.87;8.17;;;15.70;99.90;;;;;;10540486;28;20287;-82
2021/09/03 01:21:54;;;;;;;8.17;7.50;;;15.70;99.90;;;;;;10529871;28;20247;-82
2021/09/03 01:26:56;;;;;;;9.83;8.90;;;15.70;99.90;;;;;;10540877;28;20195;-82
2021/09/03 01:31:58;;;;;;;9.10;8.40;;;15.60;99.90;;;;;;10542257;28;20302;-82
2021/09/03 01:37:01;;;;;;;9.00;8.20;;;15.60;99.90;;;;;;10545628;28;20198;-82
2021/09/03 01:42:04;;;;;;;9.63;8.73;;;15.60;99.90;;;;;;10543125;28;20276;-82
2021/09/03 01:47:06;;;;;;;8.63;7.83;;;15.60;99.90;;;;;;10547700;28;20192;-82
2021/09/03 01:52:09;;;;;;;9.00;8.23;;;15.60;99.90;;;;;;10527916;28;20223;-82
2021/09/03 01:57:12;;;;;;;9.53;8.73;;;15.60;99.90;;;;;;10511996;28;20593;-82
2021/09/03 02:02:14;;;;;;;8.90;8.17;;;15.60;99.90;;;;;;10526361;28;20535;-82
2021/09/03 02:07:17;;;;;;;9.57;8.20;;;15.60;99.90;;;;;;10526037;28;20204;-82
2021/09/03 02:12:19;;;;;;;8.93;8.23;;;15.50;99.90;;;;;;10527686;28;20234;-82
2021/09/03 02:17:21;;;;;;;8.73;7.93;;;15.50;99.90;;;;;;10532689;28;20226;-82
2021/09/03 02:22:25;;;;;;;9.27;8.47;;;15.50;99.90;;;;;;10536434;28;20284;-82
2021/09/03 02:27:27;;;;;;;8.70;8.00;;;15.50;99.90;;;;;;10520183;28;20544;-82
2021/09/03 02:32:29;;;;;;;8.93;8.23;;;15.40;99.90;;;;;;10536997;28;20238;-82
2021/09/03 02:37:32;;;;;;;9.80;8.80;;;15.40;99.90;;;;;;10557083;28;20271;-82
2021/09/03 02:42:34;;;;;;;9.40;8.47;;;15.40;99.90;;;;;;10535565;28;20219;-82
2021/09/03 02:47:37;;;;;;;9.83;8.97;;;15.30;99.90;;;;;;10519016;28;20228;-83
2021/09/03 02:52:40;;;;;;;9.70;8.67;;;15.30;99.90;;;;;;10554263;28;20252;-82
2021/09/03 02:57:43;;;;;;;9.90;9.00;;;15.30;99.90;;;;;;10537310;28;20200;-82
2021/09/03 03:02:45;;;;;;;9.70;8.90;;;15.30;99.90;;;;;;10519687;28;20223;-82
2021/09/03 03:07:48;;;;;;;10.70;9.60;;;15.20;99.90;;;;;;10536848;28;20211;-83
2021/09/03 03:12:53;;;;;;;10.57;9.67;;;15.20;99.90;;;;;;10520865;28;20707;-82
2021/09/03 03:17:55;;;;;;;9.40;8.57;;;15.20;99.90;;;;;;10560993;28;20259;-81
2021/09/03 03:22:59;;;;;;;8.90;8.20;;;15.10;99.90;;;;;;10563682;28;20777;-82
2021/09/03 03:28:01;;;;;;;9.77;8.93;;;15.10;99.90;;;;;;10553207;28;20204;-82
2021/09/03 03:33:04;;;;;;;10.93;10.03;;;15.10;99.90;;;;;;10518265;28;20239;-82
2021/09/03 03:38:08;;;;;;;9.83;9.13;;;15.10;99.90;;;;;;10551519;28;20302;-82
2021/09/03 03:43:10;;;;;;;10.93;10.03;;;15.00;99.90;;;;;;10552123;28;20691;-83
2021/09/03 03:48:12;;;;;;;10.77;9.83;;;15.00;99.90;;;;;;10552304;28;20200;-83
2021/09/03 03:53:15;;;;;;;13.67;9.90;;;15.00;99.90;;;;;;10534619;28;20239;-82
2021/09/03 03:58:18;;;;;;;10.20;9.30;;;15.00;99.90;;;;;;10550164;28;20279;-83
2021/09/03 04:03:20;;;;;;;10.00;9.20;;;15.00;99.90;;;;;;10533231;28;20222;-82
2021/09/03 04:08:23;;;;;;;11.40;10.30;;;14.90;99.90;;;;;;10564501;28;20208;-82
2021/09/03 04:13:25;;;;;;;11.43;10.40;;;14.90;99.90;;;;;;10546072;28;20462;-82
2021/09/03 04:18:28;;;;;;;13.50;10.77;;;14.80;99.90;;;;;;10544776;28;20200;-82
2021/09/03 04:23:31;;;;;;;10.70;9.80;;;14.80;99.90;;;;;;10550622;28;20265;-82
2021/09/03 04:28:33;;;;;;;10.90;10.00;;;14.80;99.90;;;;;;10514942;28;20224;-82
2021/09/03 04:33:35;;;;;;;10.10;9.30;;;14.80;99.90;;;;;;10510885;28;20232;-82
2021/09/03 04:38:39;;;;;;;10.80;9.90;;;14.80;99.90;;;;;;10547196;28;20203;-82
2021/09/03 04:43:41;;;;;;;9.60;8.80;;;14.70;99.90;;;;;;10548488;28;20234;-82
2021/09/03 04:48:43;;;;;;;10.57;9.67;;;14.70;99.90;;;;;;10551324;28;20214;-83
2021/09/03 04:53:46;;;;;;;10.87;9.80;;;14.70;99.90;;;;;;10527531;28;20315;-82
2021/09/03 04:58:48;;;;;;;7.97;7.17;;;14.70;99.90;;;;;;10550866;28;20563;-82
2021/09/03 05:03:50;;;;;;;10.23;9.40;;;14.70;99.90;;;;;;10551299;28;20238;-82
2021/09/03 05:08:54;;;;;;;10.77;9.77;;;14.70;99.90;;;;;;10534090;28;20210;-84
2021/09/03 05:13:56;;;;;;;10.13;9.23;;;14.70;99.90;;;;;;10533195;28;20220;-84
2021/09/03 05:18:58;;;;;;;11.50;10.40;;;14.70;99.90;;;;;;10535940;28;20200;-83
2021/09/03 05:24:01;;;;;;;10.47;9.47;;;14.70;99.90;;;;;;10528475;28;20220;-84
2021/09/03 05:29:05;;;;;;;9.43;8.37;;;14.70;99.90;;;;;;10526751;28;20291;-83
2021/09/03 05:34:07;;;;;;;10.80;9.80;;;14.70;99.90;;;;;;10512090;28;20318;-83
2021/09/03 05:39:10;;;;;;;11.40;10.40;;;14.80;99.90;;;;;;10511250;28;20655;-83
2021/09/03 05:44:12;;;;;;;11.60;10.50;;;14.70;99.90;;;;;;10510074;28;20212;-83
2021/09/03 05:49:14;;;;;;;11.00;9.90;;;14.70;99.90;;;;;;10529285;28;20226;-83
2021/09/03 05:54:18;;;;;;;10.63;9.73;;;14.70;99.90;;;;;;10544573;28;20212;-83
2021/09/03 05:59:21;;;;;;;11.23;10.23;;;14.80;99.90;;;;;;10511501;28;20206;-84
2021/09/03 06:04:23;;;;;;;11.17;10.10;;;14.80;99.90;;;;;;10515781;28;20196;-83
2021/09/03 06:09:27;;;;;;;11.20;10.30;;;14.90;99.90;;;;;;10530051;28;20295;-84
2021/09/03 06:14:29;;;;;;;11.10;10.00;;;14.90;99.90;;;;;;10546187;23;20524;-83
2021/09/03 06:19:31;;;;;;;13.90;12.57;;;14.90;99.90;;;;;;10524300;28;20208;-83
2021/09/03 06:24:35;;;;;;;12.57;11.27;;;15.00;99.90;;;;;;10507102;28;20228;-83
2021/09/03 06:29:39;;;;;;;12.50;11.40;;;15.10;99.90;;;;;;10508868;28;20199;-83
2021/09/03 06:34:43;;;;;;;13.47;12.27;;;15.10;99.90;;;;;;10507264;28;20231;-82
2021/09/03 06:39:47;;;;;;;14.17;12.87;;;15.20;99.90;;;;;;10507930;28;20295;-82
2021/09/03 06:44:50;;;;;;;13.90;12.70;;;15.20;99.90;;;;;;10509037;28;20200;-82
2021/09/03 06:49:52;;;;;;;14.17;12.97;;;15.30;99.90;;;;;;10505544;28;20606;-82
2021/09/03 06:54:56;;;;;;;16.27;14.57;;;15.30;99.90;;;;;;10504927;28;20247;-83
2021/09/03 06:59:58;;;;;;;15.93;14.27;;;15.40;99.90;;;;;;10505150;28;20677;-83
2021/09/03 07:05:00;;;;;;;14.00;12.80;;;15.50;99.90;;;;;;10528485;28;20603;-82
2021/09/03 07:10:04;;;;;;;12.83;11.57;;;15.60;99.90;;;;;;10511319;28;20568;-83
2021/09/03 07:15:09;;;;;;;12.50;11.20;;;15.70;99.90;;;;;;10512681;28;20219;-82
2021/09/03 07:20:12;;;;;;;12.03;10.93;;;15.80;99.90;;;;;;10517605;28;20212;-82
2021/09/03 07:25:15;;;;;;;12.37;11.23;;;15.90;99.90;;;;;;10509032;28;20251;-83
2021/09/03 07:30:18;;;;;;;10.37;9.47;;;16.10;99.90;;;;;;10508083;28;20349;-82
2021/09/03 07:35:20;;;;;;;12.00;10.90;;;16.20;99.90;;;;;;10520506;28;20216;-83
2021/09/03 07:40:25;;;;;;;11.33;10.23;;;16.30;99.90;;;;;;10532553;28;20311;-83
2021/09/03 07:45:27;;;;;;;11.33;10.23;;;16.50;99.90;;;;;;10531413;28;20204;-83
2021/09/03 07:50:30;;;;;;;9.53;8.63;;;16.60;99.90;;;;;;10531470;28;20219;-83
2021/09/03 07:55:34;;;;;;;9.63;8.83;;;16.80;99.90;;;;;;10514016;28;20247;-83
2021/09/03 08:00:37;;;;;;;10.80;9.87;;;17.00;99.90;;;;;;10513578;28;20239;-82
2021/09/03 08:05:39;;;;;;;10.67;9.57;;;17.20;99.90;;;;;;10529851;28;20208;-82
2021/09/03 08:10:43;;;;;;;11.20;9.40;;;17.40;99.90;;;;;;10530343;28;20220;-82
2021/09/03 08:15:46;;;;;;;10.20;9.30;;;17.60;99.90;;;;;;10513566;28;20251;-83
2021/09/03 08:20:49;;;;;;;9.80;9.00;;;17.70;99.90;;;;;;10514282;28;20216;-83
2021/09/03 08:25:52;;;;;;;10.37;9.37;;;17.80;99.90;;;;;;10532575;28;20263;-83
2021/09/03 08:30:56;;;;;;;9.77;8.97;;;17.90;99.90;;;;;;10517850;28;20220;-83
2021/09/03 08:35:58;;;;;;;10.60;9.50;;;17.90;99.90;;;;;;10513980;28;20219;-83
2021/09/03 08:41:02;;;;;;;10.43;9.57;;;18.00;99.90;;;;;;10513489;28;20323;-83
2021/09/03 08:46:07;;;;;;;11.00;10.00;;;18.10;99.90;;;;;;10529816;28;20261;-83
2021/09/03 08:51:09;;;;;;;9.63;8.73;;;18.20;99.90;;;;;;10512834;28;20216;-83
2021/09/03 08:56:13;;;;;;;10.20;9.17;;;18.30;99.90;;;;;;10531558;28;20277;-82
2021/09/03 09:01:18;;;;;;;8.60;7.80;;;18.40;99.90;;;;;;10531443;28;20680;-83
2021/09/03 09:06:22;;;;;;;9.10;8.30;;;18.40;99.90;;;;;;10529469;28;20200;-83
2021/09/03 09:11:29;;;;;;;9.20;8.30;;;18.50;99.90;;;;;;10514072;28;20247;-83
2021/09/03 09:16:31;;;;;;;9.20;8.40;;;18.50;99.90;;;;;;10532953;28;20235;-83
2021/09/03 09:21:36;;;;;;;9.40;8.17;;;18.60;99.90;;;;;;10527814;28;20235;-83
2021/09/03 09:26:48;;;;;;;9.80;9.00;;;18.70;99.90;;;;;;10509273;28;20291;-83
2021/09/03 09:31:52;;;;;;;8.90;8.10;;;18.80;99.90;;;;;;10529767;28;20203;-83
2021/09/03 09:36:57;;;;;;;9.20;8.40;;;18.90;99.90;;;;;;10529703;28;20481;-84
2021/09/03 09:42:03;;;;;;;8.60;7.90;;;19.10;99.90;;;;;;10515257;28;20215;-83
2021/09/03 09:47:07;;;;;;;9.07;8.27;;;19.40;99.90;;;;;;10526476;28;20279;-83
2021/09/03 09:52:09;;;;;;;8.13;7.43;;;19.60;99.90;;;;;;10513128;28;20292;-83
2021/09/03 09:57:13;;;;;;;8.50;7.80;;;19.90;99.90;;;;;;10504800;28;20217;-84
2021/09/03 10:02:17;;;;;;;8.90;8.20;;;20.30;99.90;;;;;;10487349;28;20212;-83
2021/09/03 10:07:19;;;;;;;9.20;8.40;;;20.80;99.90;;;;;;10496641;28;20659;-84
2021/09/03 10:12:23;;;;;;;8.33;7.73;;;21.00;99.90;;;;;;10530892;28;20239;-84
2021/09/03 10:17:25;;;;;;;8.33;7.63;;;21.10;99.90;;;;;;10526874;28;20281;-84
2021/09/03 10:22:42;;;;;;;9.03;8.30;;;20.90;99.90;;;;;;10517412;28;20228;-84
2021/09/03 10:28:05;;;;;;;8.63;7.83;;;20.70;99.90;;;;;;10513581;28;20245;-84
2021/09/03 10:33:11;;;;;;;9.33;7.53;;;20.60;99.90;;;;;;10513379;28;20219;-84
2021/09/03 10:38:27;;;;;;;9.00;8.13;;;20.40;99.90;;;;;;10533082;28;20223;-83
2021/09/03 10:43:45;;;;;;;8.00;7.20;;;20.30;99.90;;;;;;10520575;28;20275;-84
2021/09/03 10:48:50;;;;;;;8.20;7.50;;;20.20;99.90;;;;;;10478362;28;20527;-83
2021/09/03 10:53:56;;;;;;;9.60;8.80;;;20.20;99.90;;;;;;10494557;28;20208;-83
2021/09/03 10:59:04;;;;;;;9.00;8.30;;;20.20;99.90;;;;;;10477149;28;20224;-84
2021/09/03 11:04:12;;;;;;;9.33;8.50;;;20.20;99.90;;;;;;10494610;28;20700;-84
2021/09/03 11:09:24;;;;;;;9.00;8.20;;;20.20;99.90;;;;;;10478265;28;20268;-83
2021/09/03 11:14:29;;;;;;;9.27;8.40;;;20.20;99.90;;;;;;10484694;28;20236;-84
2021/09/03 11:19:33;;;;;;;8.13;7.43;;;20.10;99.90;;;;;;10534572;28;20273;-83
2021/09/03 11:24:37;;;;;;;8.97;8.07;;;20.10;99.90;;;;;;10553710;28;20291;-83
2021/09/03 11:29:45;;;;;;;8.70;8.00;;;20.10;99.90;;;;;;10555173;28;20227;-83
2021/09/03 11:34:56;;;;;;;8.83;8.13;;;20.10;99.90;;;;;;10535026;28;20251;-83
2021/09/03 11:40:05;;;;;;;9.60;8.30;;;20.20;99.90;;;;;;10535877;28;20752;-83
2021/09/03 11:45:14;;;;;;;7.97;7.37;;;20.30;99.90;;;;;;10518978;28;20231;-83
2021/09/03 11:50:18;;;;;;;8.93;8.13;;;20.30;99.90;;;;;;10550460;28;20216;-84
2021/09/03 11:55:20;;;;;;;9.47;8.57;;;20.20;99.90;;;;;;10512406;28;20220;-83
2021/09/03 12:00:28;;;;;;;8.40;7.70;;;20.20;99.90;;;;;;10476637;28;20220;-84
2021/09/03 12:05:35;;;;;;;8.30;7.60;;;20.20;99.90;;;;;;10492960;28;20196;-84
2021/09/03 12:10:52;;;;;;;7.93;7.37;;;20.20;99.90;;;;;;10498513;23;20252;-83
2021/09/03 12:16:03;;;;;;;7.90;7.30;;;20.30;99.90;;;;;;10510762;28;20258;-83
2021/09/03 12:21:17;;;;;;;8.00;7.30;;;20.30;99.90;;;;;;10550761;28;20230;-83
2021/09/03 12:26:23;;;;;;;8.70;7.90;;;20.40;99.90;;;;;;10529895;28;20214;-83
2021/09/03 12:31:32;;;;;;;7.83;7.17;;;20.50;99.90;;;;;;10522694;28;20238;-83
2021/09/03 12:36:40;;;;;;;8.33;7.60;;;20.50;99.90;;;;;;10526487;28;20582;-83
2021/09/03 12:41:44;;;;;;;8.13;7.53;;;20.50;99.90;;;;;;10527313;28;20419;-82
2021/09/03 12:46:48;;;;;;;10.03;6.73;;;20.60;99.90;;;;;;10550366;28;20199;-83
2021/09/03 12:51:53;;;;;;;8.50;7.80;;;20.70;99.90;;;;;;10528912;28;20219;-83
2021/09/03 12:56:55;;;;;;;8.60;7.90;;;20.60;99.90;;;;;;10525012;28;20242;-83
2021/09/03 13:01:58;;;;;;;8.40;7.70;;;20.50;99.90;;;;;;10527159;28;20215;-83
2021/09/03 13:07:00;;;;;;;8.47;7.60;;;20.50;99.90;;;;;;10505297;28;20204;-83
2021/09/03 13:12:10;;;;;;;7.70;6.97;;;20.50;99.90;;;;;;10523807;28;20302;-83
2021/09/03 13:17:13;;;;;;;7.87;7.27;;;20.60;99.90;;;;;;10503095;28;20212;-83
2021/09/03 13:22:15;;;;;;;7.77;7.07;;;20.70;99.90;;;;;;10522239;28;20219;-83
2021/09/03 13:27:17;;;;;;;8.40;7.70;;;20.70;99.90;;;;;;10543819;28;20690;-83
2021/09/03 13:32:21;;;;;;;8.57;7.87;;;20.60;99.90;;;;;;10523976;28;20216;-82
2021/09/03 13:37:23;;;;;;;7.53;7.03;;;20.80;99.90;;;;;;10524287;28;20269;-83
2021/09/03 13:42:25;;;;;;;7.73;7.13;;;20.90;99.90;;;;;;10520570;28;20215;-83
2021/09/03 13:47:30;;;;;;;7.13;6.43;;;20.90;99.90;;;;;;10525168;28;20290;-83
2021/09/03 13:52:32;;;;;;;7.73;7.00;;;20.90;99.90;;;;;;10504725;28;20227;-83
2021/09/03 13:57:34;;;;;;;8.33;7.63;;;21.00;99.90;;;;;;10539037;28;20781;-84
2021/09/03 14:02:38;;;;;;;8.87;6.80;;;21.00;99.90;;;;;;10538450;28;20243;-84
2021/09/03 14:07:40;;;;;;;7.63;6.93;;;21.10;99.90;;;;;;10520954;28;20210;-84
2021/09/03 14:12:42;;;;;;;9.10;7.20;;;21.20;99.90;;;;;;10533631;28;20243;-83
2021/09/03 14:17:46;;;;;;;7.23;6.53;;;21.20;99.90;;;;;;10544978;28;20215;-82
2021/09/03 14:22:48;;;;;;;6.57;6.07;;;21.20;99.90;;;;;;10544645;28;20227;-81
2021/09/03 14:27:50;;;;;;;6.90;6.30;;;21.10;99.90;;;;;;10509392;28;20640;-82
2021/09/03 14:32:54;;;;;;;6.93;6.43;;;21.10;99.90;;;;;;10545235;28;20242;-83
2021/09/03 14:37:56;;;;;;;6.47;6.00;;;21.00;99.90;;;;;;10533979;28;20279;-82
2021/09/03 14:42:58;;;;;;;7.37;6.80;;;21.20;99.90;;;;;;10534186;28;20227;-83
2021/09/03 14:48:03;;;;;;;7.17;6.50;;;21.20;99.90;;;;;;10508608;28;20310;-83
2021/09/03 14:53:05;;;;;;;7.03;6.53;;;21.30;99.90;;;;;;10522988;28;20204;-83
2021/09/03 14:58:07;;;;;;;6.67;6.10;;;21.40;99.90;;;;;;10525016;28;20216;-82
2021/09/03 15:03:11;;;;;;;7.27;6.67;;;21.50;99.90;;;;;;10523659;28;20216;-83
2021/09/03 15:08:15;;;;;;;6.10;5.67;;;21.40;99.90;;;;;;10510232;28;20279;-84
2021/09/03 15:13:17;;;;;;;7.03;5.60;;;21.40;99.90;;;;;;10507540;28;20318;-83
2021/09/03 15:18:21;;;;;;;5.90;5.40;;;21.30;99.90;;;;;;10508378;28;20228;-83
2021/09/03 15:23:23;;;;;;;6.40;5.50;;;21.20;99.90;;;;;;10500314;28;20231;-83
2021/09/03 15:28:25;;;;;;;7.77;5.50;;;21.10;99.90;;;;;;10528301;28;20196;-83
2021/09/03 15:33:29;;;;;;;6.20;5.50;;;21.00;99.90;;;;;;10511615;28;20315;-83
2021/09/03 15:38:31;;;;;;;6.43;5.93;;;20.90;99.90;;;;;;10526123;28;20618;-83
2021/09/03 15:43:33;;;;;;;8.80;6.70;;;20.70;99.90;;;;;;10526562;28;20222;-83
2021/09/03 15:48:40;;;;;;;7.00;6.10;;;20.60;99.90;;;;;;10509412;28;20204;-83
2021/09/03 15:53:42;;;;;;;7.30;6.10;;;20.70;99.90;;;;;;10526788;28;20212;-83
2021/09/03 15:58:44;;;;;;;7.10;6.40;;;20.70;99.90;;;;;;10539943;28;20307;-83
2021/09/03 16:03:48;;;;;;;7.40;6.10;;;20.80;99.90;;;;;;10522657;28;20251;-83
2021/09/03 16:08:57;;;;;;;6.03;5.53;;;20.90;99.90;;;;;;10525365;28;20761;-83
2021/09/03 16:13:59;;;;;;;8.63;7.90;;;21.00;99.90;;;;;;10523627;28;20322;-83
2021/09/03 16:19:03;;;;;;;6.67;6.17;;;21.10;99.90;;;;;;10524638;28;20219;-83
2021/09/03 16:24:05;;;;;;;6.30;5.80;;;21.00;99.90;;;;;;10505860;28;20250;-83
2021/09/03 16:35:13;;;;;;;5.97;5.57;;;21.20;99.90;;;;;;10555723;28;20204;-81
2021/09/03 16:40:15;;;;;;;6.43;5.83;;;21.20;99.90;;;;;;10527746;28;20199;-82
2021/09/03 16:45:17;;;;;;;7.57;6.87;;;21.20;99.90;;;;;;10521265;28;20644;-82
2021/09/03 16:50:21;;;;;;;4.87;4.50;;;21.20;99.90;;;;;;10508491;28;20390;-82
2021/09/03 16:55:23;;;;;;;6.00;5.60;;;21.20;99.90;;;;;;10525806;28;20711;-82
2021/09/03 17:00:25;;;;;;;5.90;5.40;;;21.20;99.90;;;;;;10514308;28;20593;-82
2021/09/03 17:05:28;;;;;;;6.47;5.97;;;21.10;99.90;;;;;;10543473;28;20666;-82
2021/09/03 17:10:30;;;;;;;6.83;6.33;;;21.00;99.90;;;;;;10572047;28;20317;-82
2021/09/03 17:15:32;;;;;;;6.80;6.30;;;20.90;99.90;;;;;;10569827;28;20567;-81
2021/09/03 17:20:36;;;;;;;6.07;5.57;;;20.90;99.90;;;;;;10567668;28;20251;-82
2021/09/03 17:25:38;;;;;;;6.10;5.60;;;20.70;99.90;;;;;;10537767;28;20200;-83
2021/09/03 17:30:41;;;;;;;6.30;5.80;;;20.70;99.90;;;;;;10542445;28;20282;-82
2021/09/03 17:35:44;;;;;;;6.43;5.93;;;20.50;99.90;;;;;;10524842;28;20222;-82
2021/09/03 17:40:46;;;;;;;6.30;5.73;;;20.40;99.90;;;;;;10540539;28;20271;-82
2021/09/03 17:45:49;;;;;;;6.60;6.00;;;20.30;99.90;;;;;;10508068;28;20196;-82
2021/09/03 17:50:53;;;;;;;8.23;5.77;;;20.10;99.90;;;;;;10525425;28;20608;-82
2021/09/03 17:55:55;;;;;;;7.47;6.57;;;20.00;99.90;;;;;;10525150;28;20246;-82
2021/09/03 18:00:57;;;;;;;6.27;5.67;;;19.90;99.90;;;;;;10525895;28;20223;-82
2021/09/03 18:06:01;;;;;;;6.73;6.03;;;19.80;99.90;;;;;;10542456;28;20188;-82
2021/09/03 18:17:51;;;;;;;8.70;7.13;;;19.50;99.90;;;;;;10495194;28;20223;-84
2021/09/03 18:22:55;;;;;;;6.17;5.57;;;19.40;99.90;;;;;;10460491;28;20259;-84
2021/09/03 18:27:59;;;;;;;6.00;5.50;;;19.40;99.90;;;;;;10478008;28;20196;-85
2021/09/03 18:33:01;;;;;;;7.00;6.00;;;19.40;99.90;;;;;;10460192;28;20227;-84
2021/09/03 18:38:05;;;;;;;6.60;6.10;;;19.30;99.90;;;;;;10462421;28;20235;-84
2021/09/03 18:43:07;;;;;;;6.63;6.03;;;19.20;99.90;;;;;;10477245;28;20247;-84
2021/09/03 18:48:10;;;;;;;7.70;6.57;;;19.20;99.90;;;;;;10519651;28;20231;-84
2021/09/03 18:53:13;;;;;;;7.80;6.63;;;19.10;99.90;;;;;;10502421;28;20223;-85
2021/09/03 18:58:16;;;;;;;7.23;6.63;;;19.00;99.90;;;;;;10505981;28;20227;-85
2021/09/03 19:03:18;;;;;;;9.30;8.40;;;18.90;99.90;;;;;;10525905;28;20246;-84
2021/09/03 19:08:23;;;;;;;9.43;8.63;;;18.90;99.90;;;;;;10542320;28;20195;-85
2021/09/03 19:13:25;;;;;;;9.33;8.43;;;18.90;99.90;;;;;;10525757;28;20706;-84
2021/09/03 19:18:28;;;;;;;7.87;7.17;;;18.90;99.90;;;;;;10525502;28;20239;-85
2021/09/03 19:23:32;;;;;;;10.50;7.47;;;18.80;99.90;;;;;;10508500;28;20315;-85
2021/09/03 19:28:34;;;;;;;13.70;11.53;;;18.80;99.90;;;;;;10525849;28;20189;-84
2021/09/03 19:33:36;;;;;;;16.73;15.23;;;18.60;99.90;;;;;;10541110;28;20216;-84
2021/09/03 19:38:40;;;;;;;14.30;12.97;;;18.60;99.90;;;;;;10544227;28;20216;-85
2021/09/03 19:43:42;;;;;;;12.83;11.33;;;18.60;99.90;;;;;;10525073;28;20219;-85
2021/09/03 19:48:44;;;;;;;13.97;12.53;;;18.50;99.90;;;;;;10525591;28;20180;-84
2021/09/03 19:53:48;;;;;;;18.37;16.47;;;18.50;99.90;;;;;;10523993;28;20749;-84
2021/09/03 19:58:51;;;;;;;17.23;15.60;;;18.50;99.90;;;;;;10525114;28;20219;-84
2021/09/03 20:03:53;;;;;;;19.17;17.30;;;18.40;99.90;;;;;;10525706;28;20223;-84
2021/09/03 20:08:57;;;;;;;12.90;11.67;;;18.40;99.90;;;;;;10540016;28;20207;-84
2021/09/03 20:14:00;;;;;;;11.53;10.43;;;18.30;99.90;;;;;;10506673;28;20227;-84
2021/09/03 20:19:02;;;;;;;12.63;11.50;;;18.20;99.90;;;;;;10506207;28;20255;-84
2021/09/03 20:24:07;;;;;;;11.73;9.80;;;18.20;99.90;;;;;;10524222;28;20224;-84
2021/09/03 20:29:09;;;;;;;10.60;9.60;;;18.10;99.90;;;;;;10481444;28;20193;-84
2021/09/03 20:34:11;;;;;;;11.80;10.70;;;18.20;99.90;;;;;;10481868;28;20225;-85
2021/09/03 20:39:16;;;;;;;17.40;15.80;;;18.10;99.90;;;;;;10481370;28;20225;-84
2021/09/03 20:44:20;;;;;;;17.03;15.33;;;18.00;99.90;;;;;;10464652;28;20671;-85
2021/09/03 20:49:22;;;;;;;11.00;10.10;;;17.90;99.90;;;;;;10481089;28;20641;-85
2021/09/03 20:54:25;;;;;;;11.47;10.37;;;17.90;99.90;;;;;;10484255;28;20681;-84
2021/09/03 20:59:28;;;;;;;10.87;9.97;;;17.90;99.90;;;;;;10542646;28;20223;-84
2021/09/03 21:04:30;;;;;;;11.53;10.43;;;17.90;99.90;;;;;;10538013;28;20467;-84
2021/09/03 21:09:33;;;;;;;9.40;8.60;;;17.90;99.90;;;;;;10522589;28;20286;-85
2021/09/03 21:14:35;;;;;;;7.50;6.90;;;17.80;99.90;;;;;;10538264;28;20646;-85
2021/09/03 21:19:37;;;;;;;7.87;7.17;;;17.80;99.90;;;;;;10538678;28;20226;-85
2021/09/03 21:24:41;;;;;;;7.70;7.00;;;17.80;99.90;;;;;;10521943;28;20231;-85
2021/09/03 21:29:43;;;;;;;9.60;8.70;;;17.80;99.90;;;;;;10522223;28;20212;-84
2021/09/03 21:34:45;;;;;;;8.83;8.10;;;17.70;99.90;;;;;;10521413;28;20235;-84
2021/09/03 21:39:49;;;;;;;8.40;7.70;;;17.70;99.90;;;;;;10519979;28;20277;-84
2021/09/03 21:44:51;;;;;;;8.37;7.60;;;17.70;99.90;;;;;;10520769;28;20211;-85
2021/09/03 21:49:53;;;;;;;8.67;7.93;;;17.70;99.90;;;;;;10521104;28;20214;-85
2021/09/03 21:54:56;;;;;;;8.23;7.63;;;17.60;99.90;;;;;;10520900;28;20223;-85
2021/09/03 21:59:59;;;;;;;8.30;7.40;;;17.60;99.90;;;;;;10503352;28;20227;-84
2021/09/03 22:05:01;;;;;;;8.47;7.87;;;17.60;99.90;;;;;;10536143;28;20238;-85
2021/09/03 22:10:05;;;;;;;9.43;8.53;;;17.50;99.90;;;;;;10515654;28;20717;-85
2021/09/03 22:15:09;;;;;;;8.90;8.20;;;17.50;99.90;;;;;;10503332;28;20227;-84
2021/09/03 22:20:13;;;;;;;10.47;9.37;;;17.40;99.90;;;;;;10520705;28;20629;-85
2021/09/03 22:25:16;;;;;;;8.70;8.00;;;17.40;99.90;;;;;;10454654;28;20247;-85
2021/09/03 22:30:18;;;;;;;9.03;8.30;;;17.40;99.90;;;;;;10527474;28;20200;-85
2021/09/03 22:35:21;;;;;;;9.50;8.60;;;17.30;99.90;;;;;;10527918;28;20246;-84
2021/09/03 22:40:24;;;;;;;10.23;9.33;;;17.30;99.90;;;;;;10511042;28;20219;-84
2021/09/03 22:45:26;;;;;;;8.67;7.97;;;17.30;99.90;;;;;;10510849;28;20291;-84
2021/09/03 22:50:28;;;;;;;8.60;7.90;;;17.20;99.90;;;;;;10526946;28;20188;-83
2021/09/03 22:55:32;;;;;;;9.40;8.50;;;17.20;99.90;;;;;;10509830;28;20703;-85
2021/09/03 23:00:34;;;;;;;8.07;7.30;;;17.20;99.90;;;;;;10526705;28;20236;-83
2021/09/03 23:05:36;;;;;;;8.40;7.80;;;17.20;99.90;;;;;;10526896;28;20768;-85
2021/09/03 23:10:40;;;;;;;8.17;7.43;;;17.10;99.90;;;;;;10543489;28;20554;-84
2021/09/03 23:15:42;;;;;;;8.70;7.90;;;17.10;99.90;;;;;;10509831;28;20683;-84
2021/09/03 23:20:44;;;;;;;9.63;8.83;;;17.10;99.90;;;;;;10526379;28;20196;-84
2021/09/03 23:25:48;;;;;;;8.80;8.10;;;17.00;99.90;;;;;;10526711;28;20196;-85
2021/09/03 23:30:50;;;;;;;10.03;9.13;;;17.00;99.90;;;;;;10525504;28;20294;-83
2021/09/03 23:35:52;;;;;;;9.47;8.67;;;16.90;99.90;;;;;;10509804;28;20230;-85
2021/09/03 23:40:56;;;;;;;9.30;8.60;;;16.90;99.90;;;;;;10542967;28;20211;-84
2021/09/03 23:45:58;;;;;;;10.00;8.73;;;16.90;99.90;;;;;;10525363;28;20195;-85
2021/09/03 23:51:00;;;;;;;9.03;8.33;;;16.80;99.90;;;;;;10509613;28;20306;-84
2021/09/03 23:56:04;;;;;;;8.67;8.07;;;16.80;99.90;;;;;;10507922;28;20647;-84
